sensor_id;sensor_type;location;lat;lon;timestamp;temperature;humidity
80274;DHT22;69576;51.902;-8.462;2024-01-30T00:01:58;9.90;75.60
80274;DHT22;69576;51.902;-8.462;2024-01-30T00:04:24;9.90;75.10
80274;DHT22;69576;51.902;-8.462;2024-01-30T00:06:52;9.80;75.40
80274;DHT22;69576;51.902;-8.462;2024-01-30T00:09:22;9.80;75.30
80274;DHT22;69576;51.902;-8.462;2024-01-30T00:11:53;9.80;75.50
80274;DHT22;69576;51.902;-8.462;2024-01-30T00:14:21;9.80;75.40
80274;DHT22;69576;51.902;-8.462;2024-01-30T00:16:47;9.80;75.50
80274;DHT22;69576;51.902;-8.462;2024-01-30T00:19:15;9.80;75.40
80274;DHT22;69576;51.902;-8.462;2024-01-30T00:21:43;9.80;76.00
80274;DHT22;69576;51.902;-8.462;2024-01-30T00:24:14;9.80;75.80
80274;DHT22;69576;51.902;-8.462;2024-01-30T00:26:39;9.80;75.30
80274;DHT22;69576;51.902;-8.462;2024-01-30T00:29:05;9.70;75.40
80274;DHT22;69576;51.902;-8.462;2024-01-30T00:31:31;9.70;75.20
80274;DHT22;69576;51.902;-8.462;2024-01-30T00:34:02;9.70;75.40
80274;DHT22;69576;51.902;-8.462;2024-01-30T00:36:30;9.70;75.60
80274;DHT22;69576;51.902;-8.462;2024-01-30T00:38:56;9.70;75.80
80274;DHT22;69576;51.902;-8.462;2024-01-30T00:41:21;9.70;75.80
80274;DHT22;69576;51.902;-8.462;2024-01-30T00:43:47;9.70;76.00
80274;DHT22;69576;51.902;-8.462;2024-01-30T00:46:18;9.70;75.90
80274;DHT22;69576;51.902;-8.462;2024-01-30T00:48:43;9.70;75.90
80274;DHT22;69576;51.902;-8.462;2024-01-30T00:51:09;9.60;75.90
80274;DHT22;69576;51.902;-8.462;2024-01-30T00:53:35;9.60;75.70
80274;DHT22;69576;51.902;-8.462;2024-01-30T00:56:01;9.60;75.70
80274;DHT22;69576;51.902;-8.462;2024-01-30T00:58:31;9.60;76.00
80274;DHT22;69576;51.902;-8.462;2024-01-30T01:00:57;9.60;75.90
80274;DHT22;69576;51.902;-8.462;2024-01-30T01:03:23;9.60;75.90
80274;DHT22;69576;51.902;-8.462;2024-01-30T01:05:50;9.60;75.70
80274;DHT22;69576;51.902;-8.462;2024-01-30T01:08:18;9.60;75.70
80274;DHT22;69576;51.902;-8.462;2024-01-30T01:10:50;9.60;75.80
80274;DHT22;69576;51.902;-8.462;2024-01-30T01:13:18;9.60;75.50
80274;DHT22;69576;51.902;-8.462;2024-01-30T01:15:46;9.50;75.50
80274;DHT22;69576;51.902;-8.462;2024-01-30T01:18:16;9.50;75.80
80274;DHT22;69576;51.902;-8.462;2024-01-30T01:20:42;9.50;75.70
80274;DHT22;69576;51.902;-8.462;2024-01-30T01:23:08;9.50;76.00
80274;DHT22;69576;51.902;-8.462;2024-01-30T01:25:36;9.50;75.80
80274;DHT22;69576;51.902;-8.462;2024-01-30T01:28:02;9.50;76.00
80274;DHT22;69576;51.902;-8.462;2024-01-30T01:30:27;9.50;76.00
80274;DHT22;69576;51.902;-8.462;2024-01-30T01:32:54;9.50;75.80
80274;DHT22;69576;51.902;-8.462;2024-01-30T01:35:23;9.50;75.70
80274;DHT22;69576;51.902;-8.462;2024-01-30T01:37:51;9.50;75.80
80274;DHT22;69576;51.902;-8.462;2024-01-30T01:40:27;9.50;75.70
80274;DHT22;69576;51.902;-8.462;2024-01-30T01:42:56;9.50;75.90
80274;DHT22;69576;51.902;-8.462;2024-01-30T01:45:22;9.40;75.90
80274;DHT22;69576;51.902;-8.462;2024-01-30T01:47:50;9.40;75.70
80274;DHT22;69576;51.902;-8.462;2024-01-30T01:50:17;9.40;76.00
80274;DHT22;69576;51.902;-8.462;2024-01-30T01:52:44;9.40;75.90
80274;DHT22;69576;51.902;-8.462;2024-01-30T01:55:14;9.40;76.30
80274;DHT22;69576;51.902;-8.462;2024-01-30T01:57:44;9.40;75.70
80274;DHT22;69576;51.902;-8.462;2024-01-30T02:00:10;9.40;75.60
80274;DHT22;69576;51.902;-8.462;2024-01-30T02:02:37;9.40;75.90
80274;DHT22;69576;51.902;-8.462;2024-01-30T02:05:04;9.40;75.40
80274;DHT22;69576;51.902;-8.462;2024-01-30T02:07:30;9.40;75.60
80274;DHT22;69576;51.902;-8.462;2024-01-30T02:09:56;9.40;75.70
80274;DHT22;69576;51.902;-8.462;2024-01-30T02:12:22;9.30;75.70
80274;DHT22;69576;51.902;-8.462;2024-01-30T02:14:49;9.30;75.50
80274;DHT22;69576;51.902;-8.462;2024-01-30T02:17:18;9.30;75.90
80274;DHT22;69576;51.902;-8.462;2024-01-30T02:19:49;9.30;75.90
80274;DHT22;69576;51.902;-8.462;2024-01-30T02:22:17;9.20;75.90
80274;DHT22;69576;51.902;-8.462;2024-01-30T02:24:46;9.20;75.80
80274;DHT22;69576;51.902;-8.462;2024-01-30T02:27:11;9.20;75.50
80274;DHT22;69576;51.902;-8.462;2024-01-30T02:29:39;9.20;75.70
80274;DHT22;69576;51.902;-8.462;2024-01-30T02:32:06;9.20;75.40
80274;DHT22;69576;51.902;-8.462;2024-01-30T02:34:32;9.20;75.80
80274;DHT22;69576;51.902;-8.462;2024-01-30T02:36:57;9.20;76.10
80274;DHT22;69576;51.902;-8.462;2024-01-30T02:39:23;9.20;76.10
80274;DHT22;69576;51.902;-8.462;2024-01-30T02:41:49;9.20;76.00
80274;DHT22;69576;51.902;-8.462;2024-01-30T02:44:17;9.20;76.20
80274;DHT22;69576;51.902;-8.462;2024-01-30T02:46:42;9.20;75.90
80274;DHT22;69576;51.902;-8.462;2024-01-30T02:49:10;9.20;75.70
80274;DHT22;69576;51.902;-8.462;2024-01-30T02:51:36;9.20;76.10
80274;DHT22;69576;51.902;-8.462;2024-01-30T02:54:06;9.10;75.90
80274;DHT22;69576;51.902;-8.462;2024-01-30T02:56:34;9.20;76.50
80274;DHT22;69576;51.902;-8.462;2024-01-30T02:59:00;9.10;76.20
80274;DHT22;69576;51.902;-8.462;2024-01-30T03:01:30;9.20;76.50
80274;DHT22;69576;51.902;-8.462;2024-01-30T03:03:59;9.10;76.40
80274;DHT22;69576;51.902;-8.462;2024-01-30T03:06:25;9.10;76.70
80274;DHT22;69576;51.902;-8.462;2024-01-30T03:08:53;9.10;76.40
80274;DHT22;69576;51.902;-8.462;2024-01-30T03:11:21;9.10;76.40
80274;DHT22;69576;51.902;-8.462;2024-01-30T03:13:46;9.10;76.50
80274;DHT22;69576;51.902;-8.462;2024-01-30T03:16:15;9.10;76.90
80274;DHT22;69576;51.902;-8.462;2024-01-30T03:18:42;9.20;76.90
80274;DHT22;69576;51.902;-8.462;2024-01-30T03:21:10;9.10;76.30
80274;DHT22;69576;51.902;-8.462;2024-01-30T03:23:36;9.10;76.20
80274;DHT22;69576;51.902;-8.462;2024-01-30T03:26:04;9.10;76.20
80274;DHT22;69576;51.902;-8.462;2024-01-30T03:28:34;9.00;75.90
80274;DHT22;69576;51.902;-8.462;2024-01-30T03:31:02;9.00;75.90
80274;DHT22;69576;51.902;-8.462;2024-01-30T03:33:30;9.00;76.20
80274;DHT22;69576;51.902;-8.462;2024-01-30T03:35:56;9.00;76.00
80274;DHT22;69576;51.902;-8.462;2024-01-30T03:38:22;9.00;76.10
80274;DHT22;69576;51.902;-8.462;2024-01-30T03:40:51;9.00;75.90
80274;DHT22;69576;51.902;-8.462;2024-01-30T03:43:19;9.00;76.20
80274;DHT22;69576;51.902;-8.462;2024-01-30T03:45:44;9.00;76.50
80274;DHT22;69576;51.902;-8.462;2024-01-30T03:48:10;9.00;76.20
80274;DHT22;69576;51.902;-8.462;2024-01-30T03:50:41;9.00;76.20
80274;DHT22;69576;51.902;-8.462;2024-01-30T03:53:06;9.00;76.40
80274;DHT22;69576;51.902;-8.462;2024-01-30T03:55:37;9.00;76.70
80274;DHT22;69576;51.902;-8.462;2024-01-30T03:58:05;9.00;76.80
80274;DHT22;69576;51.902;-8.462;2024-01-30T04:00:33;9.00;77.20
80274;DHT22;69576;51.902;-8.462;2024-01-30T04:03:02;9.00;77.00
80274;DHT22;69576;51.902;-8.462;2024-01-30T04:05:30;9.00;76.40
80274;DHT22;69576;51.902;-8.462;2024-01-30T04:07:55;9.00;76.80
80274;DHT22;69576;51.902;-8.462;2024-01-30T04:10:24;9.00;76.80
80274;DHT22;69576;51.902;-8.462;2024-01-30T04:12:53;9.00;76.60
80274;DHT22;69576;51.902;-8.462;2024-01-30T04:15:19;9.00;76.50
80274;DHT22;69576;51.902;-8.462;2024-01-30T04:17:45;9.00;76.00
80274;DHT22;69576;51.902;-8.462;2024-01-30T04:20:15;8.90;76.10
80274;DHT22;69576;51.902;-8.462;2024-01-30T04:22:47;8.90;76.40
80274;DHT22;69576;51.902;-8.462;2024-01-30T04:25:15;8.90;76.40
80274;DHT22;69576;51.902;-8.462;2024-01-30T04:27:43;8.90;76.40
80274;DHT22;69576;51.902;-8.462;2024-01-30T04:30:09;8.90;76.20
80274;DHT22;69576;51.902;-8.462;2024-01-30T04:32:36;8.90;76.40
80274;DHT22;69576;51.902;-8.462;2024-01-30T04:35:04;8.90;76.40
80274;DHT22;69576;51.902;-8.462;2024-01-30T04:37:32;8.90;76.30
80274;DHT22;69576;51.902;-8.462;2024-01-30T04:39:58;8.90;76.40
80274;DHT22;69576;51.902;-8.462;2024-01-30T04:42:24;8.80;76.30
80274;DHT22;69576;51.902;-8.462;2024-01-30T04:44:50;8.80;76.50
80274;DHT22;69576;51.902;-8.462;2024-01-30T04:47:18;8.80;76.30
80274;DHT22;69576;51.902;-8.462;2024-01-30T04:49:44;8.80;76.00
80274;DHT22;69576;51.902;-8.462;2024-01-30T04:52:10;8.80;76.60
80274;DHT22;69576;51.902;-8.462;2024-01-30T04:54:38;8.80;76.20
80274;DHT22;69576;51.902;-8.462;2024-01-30T04:57:06;8.80;76.10
80274;DHT22;69576;51.902;-8.462;2024-01-30T04:59:40;8.80;76.20
80274;DHT22;69576;51.902;-8.462;2024-01-30T05:02:05;8.80;76.40
80274;DHT22;69576;51.902;-8.462;2024-01-30T05:04:33;8.80;76.20
80274;DHT22;69576;51.902;-8.462;2024-01-30T05:06:59;8.70;76.40
80274;DHT22;69576;51.902;-8.462;2024-01-30T05:09:25;8.70;76.20
80274;DHT22;69576;51.902;-8.462;2024-01-30T05:11:53;8.70;76.20
80274;DHT22;69576;51.902;-8.462;2024-01-30T05:14:19;8.70;76.30
80274;DHT22;69576;51.902;-8.462;2024-01-30T05:16:45;8.70;76.30
80274;DHT22;69576;51.902;-8.462;2024-01-30T05:19:15;8.70;76.50
80274;DHT22;69576;51.902;-8.462;2024-01-30T05:21:43;8.70;76.20
80274;DHT22;69576;51.902;-8.462;2024-01-30T05:24:12;8.60;76.40
80274;DHT22;69576;51.902;-8.462;2024-01-30T05:26:40;8.70;76.40
80274;DHT22;69576;51.902;-8.462;2024-01-30T05:29:09;8.60;76.30
80274;DHT22;69576;51.902;-8.462;2024-01-30T05:31:37;8.70;76.40
80274;DHT22;69576;51.902;-8.462;2024-01-30T05:34:03;8.60;76.40
80274;DHT22;69576;51.902;-8.462;2024-01-30T05:36:32;8.70;76.60
80274;DHT22;69576;51.902;-8.462;2024-01-30T05:39:00;8.60;76.10
80274;DHT22;69576;51.902;-8.462;2024-01-30T05:41:26;8.60;76.00
80274;DHT22;69576;51.902;-8.462;2024-01-30T05:43:54;8.70;76.30
80274;DHT22;69576;51.902;-8.462;2024-01-30T05:46:23;8.60;75.90
80274;DHT22;69576;51.902;-8.462;2024-01-30T05:48:49;8.60;76.20
80274;DHT22;69576;51.902;-8.462;2024-01-30T05:51:14;8.60;75.90
80274;DHT22;69576;51.902;-8.462;2024-01-30T05:53:40;8.60;76.10
80274;DHT22;69576;51.902;-8.462;2024-01-30T05:56:09;8.60;76.20
80274;DHT22;69576;51.902;-8.462;2024-01-30T05:58:35;8.60;76.10
80274;DHT22;69576;51.902;-8.462;2024-01-30T06:01:02;8.60;76.20
80274;DHT22;69576;51.902;-8.462;2024-01-30T06:03:28;8.60;75.90
80274;DHT22;69576;51.902;-8.462;2024-01-30T06:05:56;8.60;76.20
80274;DHT22;69576;51.902;-8.462;2024-01-30T06:08:24;8.60;76.10
80274;DHT22;69576;51.902;-8.462;2024-01-30T06:10:52;8.60;76.20
80274;DHT22;69576;51.902;-8.462;2024-01-30T06:13:20;8.60;76.00
80274;DHT22;69576;51.902;-8.462;2024-01-30T06:15:49;8.60;76.40
80274;DHT22;69576;51.902;-8.462;2024-01-30T06:18:16;8.60;76.00
80274;DHT22;69576;51.902;-8.462;2024-01-30T06:20:42;8.50;76.00
80274;DHT22;69576;51.902;-8.462;2024-01-30T06:23:08;8.50;75.90
80274;DHT22;69576;51.902;-8.462;2024-01-30T06:25:36;8.50;76.00
80274;DHT22;69576;51.902;-8.462;2024-01-30T06:28:02;8.50;76.00
80274;DHT22;69576;51.902;-8.462;2024-01-30T06:30:28;8.50;76.00
80274;DHT22;69576;51.902;-8.462;2024-01-30T06:32:56;8.50;76.20
80274;DHT22;69576;51.902;-8.462;2024-01-30T06:35:25;8.50;76.20
80274;DHT22;69576;51.902;-8.462;2024-01-30T06:37:53;8.50;76.10
80274;DHT22;69576;51.902;-8.462;2024-01-30T06:40:19;8.50;75.90
80274;DHT22;69576;51.902;-8.462;2024-01-30T06:42:47;8.50;75.90
80274;DHT22;69576;51.902;-8.462;2024-01-30T06:45:20;8.50;76.10
80274;DHT22;69576;51.902;-8.462;2024-01-30T06:47:45;8.50;76.20
80274;DHT22;69576;51.902;-8.462;2024-01-30T06:50:11;8.50;75.90
80274;DHT22;69576;51.902;-8.462;2024-01-30T06:52:37;8.50;76.10
80274;DHT22;69576;51.902;-8.462;2024-01-30T06:55:05;8.50;76.30
80274;DHT22;69576;51.902;-8.462;2024-01-30T06:57:31;8.60;76.20
80274;DHT22;69576;51.902;-8.462;2024-01-30T06:59:57;8.60;76.00
80274;DHT22;69576;51.902;-8.462;2024-01-30T07:02:23;8.60;75.90
80274;DHT22;69576;51.902;-8.462;2024-01-30T07:04:48;8.60;76.30
80274;DHT22;69576;51.902;-8.462;2024-01-30T07:07:15;8.60;76.50
80274;DHT22;69576;51.902;-8.462;2024-01-30T07:09:41;8.60;76.70
80274;DHT22;69576;51.902;-8.462;2024-01-30T07:12:07;8.70;76.20
80274;DHT22;69576;51.902;-8.462;2024-01-30T07:14:35;8.70;75.90
80274;DHT22;69576;51.902;-8.462;2024-01-30T07:17:04;8.80;75.20
80274;DHT22;69576;51.902;-8.462;2024-01-30T07:19:29;8.80;75.10
80274;DHT22;69576;51.902;-8.462;2024-01-30T07:21:58;8.90;74.70
80274;DHT22;69576;51.902;-8.462;2024-01-30T07:24:24;8.90;74.90
80274;DHT22;69576;51.902;-8.462;2024-01-30T07:26:49;9.00;74.50
80274;DHT22;69576;51.902;-8.462;2024-01-30T07:29:18;9.00;74.40
80274;DHT22;69576;51.902;-8.462;2024-01-30T07:31:46;9.20;74.10
80274;DHT22;69576;51.902;-8.462;2024-01-30T07:34:14;9.10;73.60
80274;DHT22;69576;51.902;-8.462;2024-01-30T07:36:42;9.10;73.40
80274;DHT22;69576;51.902;-8.462;2024-01-30T07:39:08;9.10;73.30
80274;DHT22;69576;51.902;-8.462;2024-01-30T07:41:35;9.00;73.60
80274;DHT22;69576;51.902;-8.462;2024-01-30T07:44:03;9.00;73.50
80274;DHT22;69576;51.902;-8.462;2024-01-30T07:46:33;9.10;73.10
80274;DHT22;69576;51.902;-8.462;2024-01-30T07:48:59;9.20;73.30
80274;DHT22;69576;51.902;-8.462;2024-01-30T07:51:25;9.20;73.70
80274;DHT22;69576;51.902;-8.462;2024-01-30T07:53:54;9.30;74.00
80274;DHT22;69576;51.902;-8.462;2024-01-30T07:56:25;9.40;74.20
80274;DHT22;69576;51.902;-8.462;2024-01-30T07:58:53;9.40;73.60
80274;DHT22;69576;51.902;-8.462;2024-01-30T08:01:22;9.40;74.00
80274;DHT22;69576;51.902;-8.462;2024-01-30T08:03:48;9.40;72.80
80274;DHT22;69576;51.902;-8.462;2024-01-30T08:06:14;9.40;73.80
80274;DHT22;69576;51.902;-8.462;2024-01-30T08:08:42;9.40;72.50
80274;DHT22;69576;51.902;-8.462;2024-01-30T08:11:12;9.40;72.30
80274;DHT22;69576;51.902;-8.462;2024-01-30T08:13:38;9.40;72.20
80274;DHT22;69576;51.902;-8.462;2024-01-30T08:16:09;9.40;72.30
80274;DHT22;69576;51.902;-8.462;2024-01-30T08:18:37;9.40;72.40
80274;DHT22;69576;51.902;-8.462;2024-01-30T08:21:07;9.40;72.10
80274;DHT22;69576;51.902;-8.462;2024-01-30T08:23:33;9.40;72.20
80274;DHT22;69576;51.902;-8.462;2024-01-30T08:25:59;9.30;72.10
80274;DHT22;69576;51.902;-8.462;2024-01-30T08:28:25;9.30;72.30
80274;DHT22;69576;51.902;-8.462;2024-01-30T08:30:54;9.20;71.80
80274;DHT22;69576;51.902;-8.462;2024-01-30T08:33:22;9.20;71.30
80274;DHT22;69576;51.902;-8.462;2024-01-30T08:35:48;9.20;71.20
80274;DHT22;69576;51.902;-8.462;2024-01-30T08:38:16;9.20;71.20
80274;DHT22;69576;51.902;-8.462;2024-01-30T08:40:44;9.20;71.10
80274;DHT22;69576;51.902;-8.462;2024-01-30T08:43:13;9.10;70.90
80274;DHT22;69576;51.902;-8.462;2024-01-30T08:45:39;9.10;70.70
80274;DHT22;69576;51.902;-8.462;2024-01-30T08:48:06;9.10;71.00
80274;DHT22;69576;51.902;-8.462;2024-01-30T08:50:34;9.10;71.10
80274;DHT22;69576;51.902;-8.462;2024-01-30T08:53:02;9.10;70.90
80274;DHT22;69576;51.902;-8.462;2024-01-30T08:55:33;9.00;70.60
80274;DHT22;69576;51.902;-8.462;2024-01-30T08:57:59;9.00;70.60
80274;DHT22;69576;51.902;-8.462;2024-01-30T09:00:25;9.00;70.30
80274;DHT22;69576;51.902;-8.462;2024-01-30T09:02:53;9.00;70.50
80274;DHT22;69576;51.902;-8.462;2024-01-30T09:05:19;9.00;70.40
80274;DHT22;69576;51.902;-8.462;2024-01-30T09:07:46;9.00;70.30
80274;DHT22;69576;51.902;-8.462;2024-01-30T09:10:12;9.00;70.30
80274;DHT22;69576;51.902;-8.462;2024-01-30T09:12:40;9.00;70.20
80274;DHT22;69576;51.902;-8.462;2024-01-30T09:15:09;9.00;70.20
80274;DHT22;69576;51.902;-8.462;2024-01-30T09:17:39;9.00;69.90
80274;DHT22;69576;51.902;-8.462;2024-01-30T09:20:05;9.00;70.00
80274;DHT22;69576;51.902;-8.462;2024-01-30T09:22:31;9.00;69.90
80274;DHT22;69576;51.902;-8.462;2024-01-30T09:24:57;9.00;69.70
80274;DHT22;69576;51.902;-8.462;2024-01-30T09:27:24;9.00;69.80
80274;DHT22;69576;51.902;-8.462;2024-01-30T09:29:49;9.00;69.80
80274;DHT22;69576;51.902;-8.462;2024-01-30T09:32:15;9.10;69.80
80274;DHT22;69576;51.902;-8.462;2024-01-30T09:34:46;9.20;69.70
80274;DHT22;69576;51.902;-8.462;2024-01-30T09:37:15;9.20;69.60
80274;DHT22;69576;51.902;-8.462;2024-01-30T09:39:43;9.20;69.50
80274;DHT22;69576;51.902;-8.462;2024-01-30T09:42:19;9.20;69.00
80274;DHT22;69576;51.902;-8.462;2024-01-30T09:44:47;9.20;69.00
80274;DHT22;69576;51.902;-8.462;2024-01-30T09:47:20;9.30;68.70
80274;DHT22;69576;51.902;-8.462;2024-01-30T09:49:47;9.30;68.50
80274;DHT22;69576;51.902;-8.462;2024-01-30T09:52:14;9.40;68.30
80274;DHT22;69576;51.902;-8.462;2024-01-30T09:54:43;9.40;67.90
80274;DHT22;69576;51.902;-8.462;2024-01-30T09:57:11;9.40;68.00
80274;DHT22;69576;51.902;-8.462;2024-01-30T09:59:41;9.50;68.00
80274;DHT22;69576;51.902;-8.462;2024-01-30T10:02:08;9.60;68.00
80274;DHT22;69576;51.902;-8.462;2024-01-30T10:04:37;9.60;67.80
80274;DHT22;69576;51.902;-8.462;2024-01-30T10:07:03;9.70;68.20
80274;DHT22;69576;51.902;-8.462;2024-01-30T10:09:32;9.80;68.10
80274;DHT22;69576;51.902;-8.462;2024-01-30T10:11:59;9.90;68.00
80274;DHT22;69576;51.902;-8.462;2024-01-30T10:14:27;10.00;68.00
80274;DHT22;69576;51.902;-8.462;2024-01-30T10:16:55;10.10;67.80
80274;DHT22;69576;51.902;-8.462;2024-01-30T10:19:25;10.20;67.90
80274;DHT22;69576;51.902;-8.462;2024-01-30T10:21:51;10.30;67.70
80274;DHT22;69576;51.902;-8.462;2024-01-30T10:24:23;10.40;67.60
80274;DHT22;69576;51.902;-8.462;2024-01-30T10:26:49;10.50;67.30
80274;DHT22;69576;51.902;-8.462;2024-01-30T10:29:14;10.60;67.20
80274;DHT22;69576;51.902;-8.462;2024-01-30T10:31:40;10.70;66.90
80274;DHT22;69576;51.902;-8.462;2024-01-30T10:34:08;10.70;66.70
80274;DHT22;69576;51.902;-8.462;2024-01-30T10:36:40;10.80;66.80
80274;DHT22;69576;51.902;-8.462;2024-01-30T10:39:09;10.90;66.70
80274;DHT22;69576;51.902;-8.462;2024-01-30T10:41:43;11.00;66.60
80274;DHT22;69576;51.902;-8.462;2024-01-30T10:44:12;11.10;66.60
80274;DHT22;69576;51.902;-8.462;2024-01-30T10:46:42;11.10;66.50
80274;DHT22;69576;51.902;-8.462;2024-01-30T10:49:12;11.10;66.50
80274;DHT22;69576;51.902;-8.462;2024-01-30T10:51:39;11.10;66.60
80274;DHT22;69576;51.902;-8.462;2024-01-30T10:54:08;11.20;66.50
80274;DHT22;69576;51.902;-8.462;2024-01-30T10:56:40;11.30;66.60
80274;DHT22;69576;51.902;-8.462;2024-01-30T10:59:06;11.30;66.60
80274;DHT22;69576;51.902;-8.462;2024-01-30T11:01:35;11.40;66.60
80274;DHT22;69576;51.902;-8.462;2024-01-30T11:04:01;11.50;66.70
80274;DHT22;69576;51.902;-8.462;2024-01-30T11:06:27;11.50;66.50
80274;DHT22;69576;51.902;-8.462;2024-01-30T11:09:03;11.50;66.50
80274;DHT22;69576;51.902;-8.462;2024-01-30T11:11:30;11.60;66.60
80274;DHT22;69576;51.902;-8.462;2024-01-30T11:14:00;11.70;66.50
80274;DHT22;69576;51.902;-8.462;2024-01-30T11:16:31;11.70;66.40
80274;DHT22;69576;51.902;-8.462;2024-01-30T11:19:00;11.70;66.50
80274;DHT22;69576;51.902;-8.462;2024-01-30T11:21:28;11.70;66.40
80274;DHT22;69576;51.902;-8.462;2024-01-30T11:23:56;11.80;66.40
80274;DHT22;69576;51.902;-8.462;2024-01-30T11:26:31;11.90;66.50
80274;DHT22;69576;51.902;-8.462;2024-01-30T11:29:03;11.90;66.30
80274;DHT22;69576;51.902;-8.462;2024-01-30T11:31:32;11.90;66.40
80274;DHT22;69576;51.902;-8.462;2024-01-30T11:33:58;12.00;66.40
80274;DHT22;69576;51.902;-8.462;2024-01-30T11:36:25;12.10;66.40
80274;DHT22;69576;51.902;-8.462;2024-01-30T11:38:54;12.10;66.50
80274;DHT22;69576;51.902;-8.462;2024-01-30T11:41:23;12.20;66.40
80274;DHT22;69576;51.902;-8.462;2024-01-30T11:43:53;12.20;66.20
80274;DHT22;69576;51.902;-8.462;2024-01-30T11:46:19;12.30;66.20
80274;DHT22;69576;51.902;-8.462;2024-01-30T11:48:47;12.30;66.10
80274;DHT22;69576;51.902;-8.462;2024-01-30T11:51:13;12.30;66.10
80274;DHT22;69576;51.902;-8.462;2024-01-30T11:53:39;12.50;66.10
80274;DHT22;69576;51.902;-8.462;2024-01-30T11:56:06;12.50;66.10
80274;DHT22;69576;51.902;-8.462;2024-01-30T11:58:38;12.50;66.00
80274;DHT22;69576;51.902;-8.462;2024-01-30T12:01:07;12.50;65.90
80274;DHT22;69576;51.902;-8.462;2024-01-30T12:03:33;12.50;66.00
80274;DHT22;69576;51.902;-8.462;2024-01-30T12:05:59;12.50;66.00
80274;DHT22;69576;51.902;-8.462;2024-01-30T12:08:25;12.50;66.00
80274;DHT22;69576;51.902;-8.462;2024-01-30T12:11:01;12.60;65.90
80274;DHT22;69576;51.902;-8.462;2024-01-30T12:13:29;12.60;66.00
80274;DHT22;69576;51.902;-8.462;2024-01-30T12:15:58;12.70;65.90
80274;DHT22;69576;51.902;-8.462;2024-01-30T12:18:24;12.70;65.90
80274;DHT22;69576;51.902;-8.462;2024-01-30T12:21:04;12.70;65.90
80274;DHT22;69576;51.902;-8.462;2024-01-30T12:23:35;12.70;65.60
80274;DHT22;69576;51.902;-8.462;2024-01-30T12:26:01;12.80;65.90
80274;DHT22;69576;51.902;-8.462;2024-01-30T12:28:32;12.80;65.90
80274;DHT22;69576;51.902;-8.462;2024-01-30T12:31:06;12.80;65.90
80274;DHT22;69576;51.902;-8.462;2024-01-30T12:33:36;12.80;65.90
80274;DHT22;69576;51.902;-8.462;2024-01-30T12:36:02;12.80;65.90
80274;DHT22;69576;51.902;-8.462;2024-01-30T12:38:29;12.80;65.90
80274;DHT22;69576;51.902;-8.462;2024-01-30T12:40:55;12.70;66.00
80274;DHT22;69576;51.902;-8.462;2024-01-30T12:43:22;12.70;66.00
80274;DHT22;69576;51.902;-8.462;2024-01-30T12:45:49;12.70;66.10
80274;DHT22;69576;51.902;-8.462;2024-01-30T12:48:20;12.70;65.90
80274;DHT22;69576;51.902;-8.462;2024-01-30T12:50:46;12.70;66.20
80274;DHT22;69576;51.902;-8.462;2024-01-30T12:53:14;12.70;66.00
80274;DHT22;69576;51.902;-8.462;2024-01-30T12:55:40;12.70;65.90
80274;DHT22;69576;51.902;-8.462;2024-01-30T12:58:08;12.70;66.00
80274;DHT22;69576;51.902;-8.462;2024-01-30T13:00:34;12.70;66.10
80274;DHT22;69576;51.902;-8.462;2024-01-30T13:03:02;12.70;66.00
80274;DHT22;69576;51.902;-8.462;2024-01-30T13:05:34;12.70;66.00
80274;DHT22;69576;51.902;-8.462;2024-01-30T13:08:02;12.70;66.10
80274;DHT22;69576;51.902;-8.462;2024-01-30T13:10:31;12.70;66.00
80274;DHT22;69576;51.902;-8.462;2024-01-30T13:12:59;12.70;65.70
80274;DHT22;69576;51.902;-8.462;2024-01-30T13:15:27;12.70;65.90
80274;DHT22;69576;51.902;-8.462;2024-01-30T13:17:53;12.70;65.90
80274;DHT22;69576;51.902;-8.462;2024-01-30T13:20:19;12.70;65.70
80274;DHT22;69576;51.902;-8.462;2024-01-30T13:22:49;12.70;65.50
80274;DHT22;69576;51.902;-8.462;2024-01-30T13:25:17;12.70;65.60
80274;DHT22;69576;51.902;-8.462;2024-01-30T13:27:43;12.80;65.50
80274;DHT22;69576;51.902;-8.462;2024-01-30T13:30:11;12.80;65.50
80274;DHT22;69576;51.902;-8.462;2024-01-30T13:32:42;12.80;65.70
80274;DHT22;69576;51.902;-8.462;2024-01-30T13:35:12;12.80;65.80
80274;DHT22;69576;51.902;-8.462;2024-01-30T13:37:40;12.80;65.80
80274;DHT22;69576;51.902;-8.462;2024-01-30T13:40:07;12.80;65.60
80274;DHT22;69576;51.902;-8.462;2024-01-30T13:42:38;12.70;65.80
80274;DHT22;69576;51.902;-8.462;2024-01-30T13:45:06;12.70;65.70
80274;DHT22;69576;51.902;-8.462;2024-01-30T13:47:35;12.70;65.60
80274;DHT22;69576;51.902;-8.462;2024-01-30T13:50:03;12.70;65.60
80274;DHT22;69576;51.902;-8.462;2024-01-30T13:52:31;12.70;65.60
80274;DHT22;69576;51.902;-8.462;2024-01-30T13:54:57;12.70;65.40
80274;DHT22;69576;51.902;-8.462;2024-01-30T13:57:23;12.70;65.50
80274;DHT22;69576;51.902;-8.462;2024-01-30T13:59:49;12.70;65.60
80274;DHT22;69576;51.902;-8.462;2024-01-30T14:02:15;12.70;65.40
80274;DHT22;69576;51.902;-8.462;2024-01-30T14:04:40;12.70;65.30
80274;DHT22;69576;51.902;-8.462;2024-01-30T14:07:08;12.70;65.50
80274;DHT22;69576;51.902;-8.462;2024-01-30T14:09:35;12.70;65.20
80274;DHT22;69576;51.902;-8.462;2024-01-30T14:12:03;12.70;65.50
80274;DHT22;69576;51.902;-8.462;2024-01-30T14:14:29;12.70;65.10
80274;DHT22;69576;51.902;-8.462;2024-01-30T14:16:57;12.70;65.30
80274;DHT22;69576;51.902;-8.462;2024-01-30T14:19:23;12.70;65.10
80274;DHT22;69576;51.902;-8.462;2024-01-30T14:21:49;12.60;65.10
80274;DHT22;69576;51.902;-8.462;2024-01-30T14:24:15;12.70;65.00
80274;DHT22;69576;51.902;-8.462;2024-01-30T14:26:43;12.70;65.00
80274;DHT22;69576;51.902;-8.462;2024-01-30T14:29:12;12.70;64.80
80274;DHT22;69576;51.902;-8.462;2024-01-30T14:31:40;12.70;65.20
80274;DHT22;69576;51.902;-8.462;2024-01-30T14:34:08;12.70;65.10
80274;DHT22;69576;51.902;-8.462;2024-01-30T14:36:38;12.70;65.00
80274;DHT22;69576;51.902;-8.462;2024-01-30T14:39:06;12.60;65.00
80274;DHT22;69576;51.902;-8.462;2024-01-30T14:41:33;12.60;65.40
80274;DHT22;69576;51.902;-8.462;2024-01-30T14:44:01;12.60;65.70
80274;DHT22;69576;51.902;-8.462;2024-01-30T14:46:27;12.70;65.40
80274;DHT22;69576;51.902;-8.462;2024-01-30T14:48:53;12.70;65.30
80274;DHT22;69576;51.902;-8.462;2024-01-30T14:51:19;12.70;65.40
80274;DHT22;69576;51.902;-8.462;2024-01-30T14:53:47;12.60;65.30
80274;DHT22;69576;51.902;-8.462;2024-01-30T14:56:16;12.60;65.30
80274;DHT22;69576;51.902;-8.462;2024-01-30T14:58:41;12.50;65.30
80274;DHT22;69576;51.902;-8.462;2024-01-30T15:01:08;12.50;65.00
80274;DHT22;69576;51.902;-8.462;2024-01-30T15:03:39;12.50;65.20
80274;DHT22;69576;51.902;-8.462;2024-01-30T15:06:06;12.50;65.30
80274;DHT22;69576;51.902;-8.462;2024-01-30T15:08:32;12.50;65.30
80274;DHT22;69576;51.902;-8.462;2024-01-30T15:11:00;12.50;65.40
80274;DHT22;69576;51.902;-8.462;2024-01-30T15:13:32;12.50;65.30
80274;DHT22;69576;51.902;-8.462;2024-01-30T15:15:58;12.50;65.20
80274;DHT22;69576;51.902;-8.462;2024-01-30T15:18:27;12.40;65.00
80274;DHT22;69576;51.902;-8.462;2024-01-30T15:20:55;12.30;65.00
80274;DHT22;69576;51.902;-8.462;2024-01-30T15:23:20;12.30;65.00
80274;DHT22;69576;51.902;-8.462;2024-01-30T15:25:49;12.30;65.10
80274;DHT22;69576;51.902;-8.462;2024-01-30T15:28:15;12.20;65.10